createdAt,value
2022-11-13T00:02:39.816Z,7.50
2022-11-13T00:07:41.641Z,7.40
2022-11-13T00:12:43.437Z,7.50
2022-11-13T00:17:45.338Z,7.60
2022-11-13T00:22:47.244Z,7.40
2022-11-13T00:27:49.019Z,7.40
2022-11-13T00:32:50.857Z,7.30
2022-11-13T00:37:52.618Z,7.20
2022-11-13T00:42:54.386Z,7.20
2022-11-13T00:47:56.465Z,7.30
2022-11-13T00:52:58.271Z,7.30
2022-11-13T00:58:00.001Z,7.10
2022-11-13T01:03:02.074Z,7.10
2022-11-13T01:08:04.467Z,7.00
2022-11-13T01:13:06.263Z,6.90
2022-11-13T01:18:08.339Z,6.90
2022-11-13T01:23:10.175Z,6.80
2022-11-13T01:28:12.001Z,6.70
2022-11-13T01:33:13.794Z,6.70
2022-11-13T01:38:15.610Z,6.60
2022-11-13T01:43:32.457Z,6.50
2022-11-13T01:48:42.187Z,6.40
2022-11-13T01:53:47.004Z,6.40
2022-11-13T01:58:55.240Z,6.40
2022-11-13T02:03:57.139Z,6.40
2022-11-13T02:08:59.499Z,6.30
2022-11-13T02:14:02.805Z,6.50
2022-11-13T02:19:10.200Z,6.40
2022-11-13T02:24:26.294Z,6.60
2022-11-13T02:29:28.153Z,6.60
2022-11-13T02:34:29.863Z,6.40
2022-11-13T02:39:31.743Z,6.70
2022-11-13T02:44:33.608Z,6.50
2022-11-13T02:49:35.508Z,6.30
2022-11-13T02:54:37.276Z,6.10
2022-11-13T02:59:39.031Z,6.40
2022-11-13T03:05:10.314Z,6.30
2022-11-13T03:10:02.911Z,6.10
2022-11-13T03:15:06.274Z,6.00
2022-11-13T03:20:08.442Z,5.90
2022-11-13T03:25:10.996Z,5.80
2022-11-13T03:30:13.244Z,5.90
2022-11-13T03:35:15.092Z,5.90
2022-11-13T03:40:17.659Z,6.10
2022-11-13T03:45:19.397Z,5.90
2022-11-13T03:50:21.202Z,5.90
2022-11-13T03:55:23.096Z,5.80
2022-11-13T04:00:24.926Z,5.80
2022-11-13T04:05:27.218Z,5.90
2022-11-13T04:10:29.126Z,5.80
2022-11-13T04:15:30.868Z,5.60
2022-11-13T04:20:32.813Z,5.60
2022-11-13T04:25:34.646Z,5.60
2022-11-13T04:30:36.890Z,5.70
2022-11-13T04:35:39.225Z,5.60
2022-11-13T04:40:41.611Z,5.60
2022-11-13T04:45:43.351Z,5.60
2022-11-13T04:50:46.735Z,5.60
2022-11-13T04:55:48.488Z,5.50
2022-11-13T05:00:50.283Z,5.50
2022-11-13T05:05:52.020Z,5.60
2022-11-13T05:10:53.864Z,5.50
2022-11-13T05:16:11.466Z,5.10
2022-11-13T05:21:13.552Z,4.90
2022-11-13T05:26:15.722Z,4.90
2022-11-13T05:31:17.735Z,4.80
2022-11-13T05:36:20.621Z,5.30
2022-11-13T05:41:23.597Z,5.40
2022-11-13T05:46:28.001Z,5.40
2022-11-13T05:51:32.570Z,5.20
2022-11-13T05:56:36.440Z,5.10
2022-11-13T06:01:40.333Z,4.90
2022-11-13T06:06:43.191Z,4.90
2022-11-13T06:11:45.313Z,5.00
2022-11-13T06:16:47.066Z,5.00
2022-11-13T06:21:48.877Z,5.00
2022-11-13T06:26:50.746Z,5.10
2022-11-13T06:31:52.490Z,5.10
2022-11-13T06:36:54.211Z,5.20
2022-11-13T06:41:56.006Z,5.20
2022-11-13T06:46:57.795Z,5.30
2022-11-13T06:51:59.514Z,5.30
2022-11-13T06:57:01.252Z,5.80
2022-11-13T07:02:03.754Z,6.10
2022-11-13T07:07:05.640Z,6.10
2022-11-13T07:12:07.639Z,6.00
2022-11-13T07:17:10.511Z,6.30
2022-11-13T07:22:12.540Z,6.90
2022-11-13T07:27:14.335Z,6.90
2022-11-13T07:32:16.261Z,7.10
2022-11-13T07:37:19.029Z,8.00
2022-11-13T07:42:20.899Z,9.10
2022-11-13T07:47:23.337Z,11.50
2022-11-13T07:52:25.161Z,14.00
2022-11-13T07:57:27.273Z,15.40
2022-11-13T08:02:29.142Z,16.80
2022-11-13T08:07:30.968Z,15.70
2022-11-13T08:12:32.843Z,16.30
2022-11-13T08:17:34.635Z,16.20
2022-11-13T08:22:36.487Z,15.50
2022-11-13T08:27:38.511Z,16.20
2022-11-13T08:32:40.508Z,17.00
2022-11-13T08:37:42.293Z,16.80
2022-11-13T08:42:44.094Z,16.70
2022-11-13T08:47:45.918Z,15.80
2022-11-13T08:52:47.750Z,16.50
2022-11-13T08:57:49.893Z,16.70
2022-11-13T09:02:59.357Z,16.40
2022-11-13T09:08:01.609Z,17.20
2022-11-13T09:13:05.628Z,16.50
2022-11-13T09:18:07.647Z,15.80
2022-11-13T09:23:09.594Z,16.10
2022-11-13T09:28:11.710Z,18.10
2022-11-13T09:33:15.550Z,17.60
2022-11-13T09:38:17.299Z,16.20
2022-11-13T09:43:43.134Z,15.70
2022-11-13T09:49:09.322Z,16.60
2022-11-13T09:54:14.366Z,16.40
2022-11-13T10:00:05.710Z,14.80
2022-11-13T10:05:20.108Z,14.00
2022-11-13T10:10:50.551Z,13.00
2022-11-13T10:16:12.606Z,13.00
2022-11-13T10:21:27.755Z,12.90
2022-11-13T10:26:29.956Z,12.60
2022-11-13T10:31:53.003Z,12.40
2022-11-13T10:37:11.134Z,12.50
2022-11-13T10:42:25.000Z,12.20
2022-11-13T10:48:02.111Z,12.00
2022-11-13T10:52:52.058Z,11.90
2022-11-13T10:57:59.816Z,11.80
2022-11-13T11:03:01.964Z,11.50
2022-11-13T11:08:09.960Z,11.50
2022-11-13T11:13:20.566Z,11.70
2022-11-13T11:18:36.809Z,11.50
2022-11-13T11:24:06.499Z,11.30
2022-11-13T11:29:34.958Z,11.10
2022-11-13T11:34:44.733Z,11.00
2022-11-13T11:40:00.666Z,10.90
2022-11-13T11:45:16.855Z,10.70
2022-11-13T11:50:39.878Z,10.40
2022-11-13T11:55:53.730Z,10.20
2022-11-13T12:01:04.797Z,10.00
2022-11-13T12:06:07.247Z,9.90
2022-11-13T12:11:22.985Z,9.80
2022-11-13T12:16:31.911Z,9.70
2022-11-13T12:21:57.441Z,9.60
2022-11-13T12:27:50.785Z,9.80
2022-11-13T12:32:58.806Z,10.10
2022-11-13T12:38:19.212Z,10.40
2022-11-13T12:43:27.186Z,10.40
2022-11-13T12:48:41.539Z,10.30
2022-11-13T12:53:44.974Z,10.20
2022-11-13T12:59:29.873Z,10.10
2022-11-13T13:05:02.600Z,9.90
2022-11-13T13:10:29.602Z,9.80
2022-11-13T13:15:38.380Z,9.50
2022-11-13T13:21:06.543Z,9.20
2022-11-13T13:26:24.057Z,9.10
2022-11-13T13:31:40.893Z,9.00
2022-11-13T13:37:05.566Z,9.00
2022-11-13T13:42:13.190Z,8.90
2022-11-13T13:47:24.201Z,8.90
2022-11-13T13:52:33.013Z,8.80
2022-11-13T13:57:40.927Z,8.50
2022-11-13T14:02:53.499Z,8.30
2022-11-13T14:07:57.397Z,8.20
2022-11-13T14:12:59.265Z,8.20
2022-11-13T14:18:18.030Z,7.90
2022-11-13T14:23:22.387Z,7.70
2022-11-13T14:28:27.813Z,7.50
2022-11-13T14:33:40.091Z,7.30
2022-11-13T14:38:51.837Z,7.10
2022-11-13T14:43:54.531Z,6.90
2022-11-13T14:48:57.455Z,6.70
2022-11-13T14:54:08.751Z,6.60
2022-11-13T14:59:19.781Z,6.50
2022-11-13T15:04:22.372Z,6.30
2022-11-13T15:09:25.519Z,6.20
2022-11-13T15:14:27.397Z,6.20
2022-11-13T15:19:35.295Z,6.10
2022-11-13T15:24:37.232Z,6.00
2022-11-13T15:29:38.965Z,5.80
2022-11-13T15:34:40.729Z,5.80
2022-11-13T15:39:42.617Z,5.70
2022-11-13T15:44:44.421Z,5.60
2022-11-13T15:49:56.716Z,5.60
2022-11-13T15:55:07.260Z,5.40
2022-11-13T16:00:26.842Z,5.30
2022-11-13T16:05:29.478Z,5.30
2022-11-13T16:10:31.662Z,5.20
2022-11-13T16:15:33.694Z,5.20
2022-11-13T16:20:35.409Z,5.10
2022-11-13T16:25:37.366Z,5.00
2022-11-13T16:30:40.089Z,5.00
2022-11-13T16:35:41.827Z,4.90
2022-11-13T16:40:45.518Z,4.80
2022-11-13T16:45:47.320Z,4.80
2022-11-13T16:50:49.082Z,4.80
2022-11-13T16:55:51.046Z,4.80
2022-11-13T17:00:58.869Z,4.80
2022-11-13T17:06:01.714Z,4.70
2022-11-13T17:11:03.475Z,4.70
2022-11-13T17:16:05.462Z,4.60
2022-11-13T17:21:07.572Z,4.60
2022-11-13T17:26:09.529Z,4.60
2022-11-13T17:31:14.688Z,4.50
2022-11-13T17:36:16.535Z,4.40
2022-11-13T17:41:18.900Z,4.30
2022-11-13T17:46:20.826Z,4.20
2022-11-13T17:51:22.748Z,4.10
2022-11-13T17:56:24.745Z,4.20
2022-11-13T18:01:26.705Z,4.00
2022-11-13T18:06:28.809Z,3.80
2022-11-13T18:11:30.733Z,3.80
2022-11-13T18:16:37.454Z,3.70
2022-11-13T18:21:40.722Z,3.60
2022-11-13T18:26:43.468Z,3.50
2022-11-13T18:31:45.390Z,3.40
2022-11-13T18:36:47.376Z,3.30
2022-11-13T18:41:50.479Z,3.30
2022-11-13T18:46:52.317Z,3.30
2022-11-13T18:51:54.299Z,3.20
2022-11-13T18:56:56.137Z,3.00
2022-11-13T19:01:57.971Z,3.00
2022-11-13T19:06:59.887Z,3.00
2022-11-13T19:12:01.872Z,2.90
2022-11-13T19:17:03.662Z,2.90
2022-11-13T19:22:05.650Z,2.80
2022-11-13T19:27:07.572Z,2.80
2022-11-13T19:32:09.528Z,2.70
2022-11-13T19:37:16.251Z,2.60
2022-11-13T19:42:20.591Z,2.70
2022-11-13T19:47:22.482Z,2.50
2022-11-13T19:52:24.403Z,2.40
2022-11-13T19:57:26.258Z,2.30
2022-11-13T20:02:28.237Z,2.30
2022-11-13T20:07:30.303Z,2.50
2022-11-13T20:12:32.254Z,2.80
2022-11-13T20:17:34.063Z,2.50
2022-11-13T20:22:35.998Z,2.40
2022-11-13T20:27:39.163Z,2.30
2022-11-13T20:32:42.639Z,2.20
2022-11-13T20:37:44.383Z,2.20
2022-11-13T20:42:46.234Z,2.20
2022-11-13T20:47:47.974Z,2.20
2022-11-13T20:52:49.729Z,2.30
2022-11-13T20:57:51.640Z,2.30
2022-11-13T21:02:53.370Z,2.30
2022-11-13T21:07:55.482Z,2.40
2022-11-13T21:12:57.319Z,2.40
2022-11-13T21:17:59.199Z,2.60
2022-11-13T21:23:01.132Z,2.40
2022-11-13T21:28:03.302Z,2.40
2022-11-13T21:33:05.105Z,2.30
2022-11-13T21:38:07.012Z,2.20
2022-11-13T21:43:08.851Z,2.20
2022-11-13T21:48:10.843Z,2.30
2022-11-13T21:53:12.696Z,2.20
2022-11-13T21:58:14.864Z,2.20
2022-11-13T22:03:16.581Z,2.10
2022-11-13T22:08:18.559Z,1.90
2022-11-13T22:13:20.418Z,1.70
2022-11-13T22:18:22.303Z,1.70
2022-11-13T22:23:24.035Z,1.60
2022-11-13T22:28:25.842Z,1.40
2022-11-13T22:33:31.555Z,1.30
2022-11-13T22:38:34.546Z,1.20
2022-11-13T22:43:40.472Z,1.10
2022-11-13T22:48:44.110Z,1.10
2022-11-13T22:53:59.443Z,1.10
2022-11-13T22:59:03.097Z,1.30
2022-11-13T23:04:07.780Z,1.30
2022-11-13T23:09:10.325Z,1.30
2022-11-13T23:14:15.774Z,1.20
2022-11-13T23:19:18.104Z,1.20
2022-11-13T23:24:19.882Z,1.10
2022-11-13T23:29:21.827Z,1.10
2022-11-13T23:34:45.343Z,1.20
2022-11-13T23:39:45.385Z,1.20
2022-11-13T23:44:47.258Z,1.10
2022-11-13T23:49:49.178Z,1.30
2022-11-13T23:54:50.955Z,1.30
2022-11-13T23:59:52.703Z,1.30
